createdAt,value
2022-09-05T00:02:49.005Z,16.29
2022-09-05T00:06:03.148Z,16.48
2022-09-05T00:09:02.458Z,17.38
2022-09-05T00:11:40.837Z,17.85
2022-09-05T00:14:46.214Z,18.25
2022-09-05T00:20:57.247Z,18.14
2022-09-05T00:24:29.812Z,18.24
2022-09-05T00:24:35.329Z,18.43
2022-09-05T00:27:08.947Z,18.51
2022-09-05T00:31:52.046Z,18.43
2022-09-05T00:33:17.187Z,18.06
2022-09-05T00:35:56.371Z,18.09
2022-09-05T00:38:37.276Z,18.34
2022-09-05T00:41:12.752Z,18.35
2022-09-05T00:43:46.439Z,18.34
2022-09-05T00:46:26.005Z,17.69
2022-09-05T00:49:14.583Z,18.11
2022-09-05T00:52:08.442Z,18.19
2022-09-05T00:55:01.631Z,17.92
2022-09-05T00:58:13.083Z,18.07
2022-09-05T01:01:02.529Z,17.78
2022-09-05T01:04:12.757Z,17.65
2022-09-05T01:07:09.279Z,17.35
2022-09-05T01:10:23.523Z,17.26
2022-09-05T01:13:18.215Z,17.03
2022-09-05T01:16:18.117Z,16.86
2022-09-05T01:19:16.299Z,16.86
2022-09-05T01:22:19.147Z,17.03
2022-09-05T01:25:20.042Z,17.13
2022-09-05T01:28:46.154Z,17.01
2022-09-05T01:31:33.629Z,17.11
2022-09-05T01:34:14.456Z,17.48
2022-09-05T01:37:05.826Z,17.62
2022-09-05T01:40:14.413Z,17.72
2022-09-05T01:42:59.538Z,16.75
2022-09-05T01:45:47.389Z,16.34
2022-09-05T01:48:26.874Z,15.90
2022-09-05T01:51:04.627Z,16.22
2022-09-05T01:53:54.223Z,16.32
2022-09-05T01:56:42.843Z,16.61
2022-09-05T01:59:38.785Z,16.95
2022-09-05T02:02:15.760Z,16.80
2022-09-05T02:05:00.940Z,17.06
2022-09-05T02:07:43.057Z,16.99
2022-09-05T02:10:12.967Z,17.06
2022-09-05T02:12:54.452Z,17.34
2022-09-05T02:16:13.379Z,17.38
2022-09-05T02:19:16.619Z,16.19
2022-09-05T02:22:12.599Z,16.10
2022-09-05T02:24:47.151Z,16.62
2022-09-05T02:28:05.066Z,15.90
2022-09-05T02:30:38.121Z,15.25
2022-09-05T02:33:42.222Z,14.80
2022-09-05T02:36:27.322Z,13.92
2022-09-05T02:45:04.017Z,13.69
2022-09-05T02:45:18.299Z,14.75
2022-09-05T02:45:34.667Z,15.42
2022-09-05T02:48:15.415Z,15.97
2022-09-05T02:57:27.963Z,16.15
2022-09-05T02:57:41.356Z,16.32
2022-09-05T02:58:07.528Z,16.53
2022-09-05T03:00:25.023Z,16.53
2022-09-05T03:03:36.154Z,16.63
2022-09-05T03:06:35.508Z,16.69
2022-09-05T03:09:29.158Z,16.60
2022-09-05T03:12:36.211Z,16.30
2022-09-05T03:15:23.072Z,16.43
2022-09-05T03:18:20.052Z,16.57
2022-09-05T03:21:14.326Z,16.55
2022-09-05T03:24:14.327Z,16.67
2022-09-05T03:27:24.972Z,16.66
2022-09-05T03:30:20.557Z,16.58
2022-09-05T03:33:18.918Z,16.72
2022-09-05T03:36:15.242Z,15.94
2022-09-05T03:39:28.790Z,16.01
2022-09-05T03:42:15.087Z,15.88
2022-09-05T03:45:00.803Z,15.90
2022-09-05T03:48:36.745Z,16.33
2022-09-05T03:57:11.650Z,16.44
2022-09-05T03:57:23.405Z,16.28
2022-09-05T03:57:41.668Z,15.98
2022-09-05T04:00:22.018Z,15.97
2022-09-05T04:08:07.988Z,16.03
2022-09-05T04:08:23.831Z,15.92
2022-09-05T04:09:50.895Z,15.38
2022-09-05T04:12:31.319Z,15.75
2022-09-05T04:15:08.837Z,15.77
2022-09-05T04:18:04.011Z,15.80
2022-09-05T04:20:44.069Z,15.40
2022-09-05T04:23:49.413Z,15.34
2022-09-05T04:26:22.403Z,15.43
2022-09-05T04:29:09.593Z,15.37
2022-09-05T04:32:18.881Z,15.15
2022-09-05T04:35:19.507Z,14.76
2022-09-05T04:38:06.379Z,13.95
2022-09-05T04:40:44.442Z,14.14
2022-09-05T04:43:25.471Z,14.92
2022-09-05T04:46:06.058Z,15.23
2022-09-05T04:48:44.152Z,15.03
2022-09-05T04:52:00.282Z,15.11
2022-09-05T04:54:42.043Z,15.40
2022-09-05T04:57:33.044Z,15.55
2022-09-05T05:06:04.826Z,15.71
2022-09-05T05:06:12.752Z,15.66
2022-09-05T05:06:29.991Z,15.83
2022-09-05T05:09:23.010Z,15.84
2022-09-05T05:17:15.294Z,15.57
2022-09-05T05:18:09.764Z,15.92
2022-09-05T05:18:39.590Z,15.30
2022-09-05T05:21:22.714Z,15.55
2022-09-05T05:24:10.916Z,15.50
2022-09-05T05:26:59.897Z,15.11
2022-09-05T05:29:51.884Z,15.20
2022-09-05T05:32:45.307Z,14.87
2022-09-05T05:35:25.127Z,15.15
2022-09-05T05:38:15.360Z,14.60
2022-09-05T05:40:55.541Z,15.00
2022-09-05T05:43:39.386Z,14.68
2022-09-05T05:46:26.165Z,15.04
2022-09-05T05:49:25.261Z,15.04
2022-09-05T05:52:33.979Z,15.20
2022-09-05T05:55:52.740Z,15.20
2022-09-05T05:58:44.946Z,15.22
2022-09-05T06:01:38.933Z,14.47
2022-09-05T06:04:30.374Z,15.17
2022-09-05T06:07:03.197Z,15.19
2022-09-05T06:14:50.907Z,14.32
2022-09-05T06:14:58.563Z,14.62
2022-09-05T06:16:47.804Z,15.07
2022-09-05T06:22:04.146Z,14.87
2022-09-05T06:23:28.767Z,14.99
2022-09-05T06:26:17.133Z,15.04
2022-09-05T06:29:38.212Z,14.77
2022-09-05T06:32:30.233Z,15.12
2022-09-05T06:35:20.297Z,14.69
2022-09-05T06:38:00.029Z,14.60
2022-09-05T06:40:34.138Z,15.08
2022-09-05T06:43:36.599Z,15.14
2022-09-05T06:46:25.373Z,14.86
2022-09-05T06:49:30.073Z,14.73
2022-09-05T06:52:28.480Z,14.30
2022-09-05T06:55:21.533Z,14.70
2022-09-05T06:57:56.703Z,14.90
2022-09-05T07:00:32.170Z,14.40
2022-09-05T07:03:24.005Z,14.40
2022-09-05T07:06:06.847Z,14.32
2022-09-05T07:08:49.314Z,14.12
2022-09-05T07:11:27.114Z,14.46
2022-09-05T07:14:04.504Z,14.25
2022-09-05T07:16:48.422Z,14.64
2022-09-05T07:19:34.285Z,14.80
2022-09-05T07:22:46.367Z,14.84
2022-09-05T07:25:21.319Z,14.58
2022-09-05T07:28:29.310Z,14.70
2022-09-05T07:30:51.967Z,14.78
2022-09-05T07:33:30.754Z,14.73
2022-09-05T07:36:34.204Z,14.80
2022-09-05T07:39:27.831Z,14.62
2022-09-05T07:41:57.806Z,14.39
2022-09-05T07:44:40.271Z,14.62
2022-09-05T07:47:20.970Z,14.66
2022-09-05T07:51:26.317Z,14.51
2022-09-05T07:56:47.696Z,14.04
2022-09-05T07:56:49.149Z,14.03
2022-09-05T07:58:52.913Z,13.88
2022-09-05T08:01:24.157Z,13.67
2022-09-05T08:04:00.339Z,13.62
2022-09-05T08:07:45.965Z,13.99
2022-09-05T08:10:05.810Z,14.04
2022-09-05T08:12:28.390Z,12.37
2022-09-05T08:15:14.003Z,12.62
2022-09-05T08:18:06.165Z,13.23
2022-09-05T08:20:44.550Z,12.25
2022-09-05T08:23:41.903Z,10.84
2022-09-05T08:26:14.017Z,11.75
2022-09-05T08:28:58.441Z,11.63
2022-09-05T08:31:53.629Z,11.19
2022-09-05T08:34:46.694Z,12.64
2022-09-05T08:37:23.583Z,11.96
2022-09-05T08:40:10.491Z,12.82
2022-09-05T08:45:29.022Z,12.92
2022-09-05T08:46:45.100Z,12.55
2022-09-05T08:49:38.016Z,12.47
2022-09-05T08:52:39.890Z,13.44
2022-09-05T08:55:36.737Z,12.77
2022-09-05T08:58:32.858Z,13.44
2022-09-05T09:01:27.915Z,12.79
2022-09-05T09:04:14.252Z,13.57
2022-09-05T09:07:47.183Z,13.65
2022-09-05T09:10:09.256Z,13.56
2022-09-05T09:13:07.691Z,13.84
2022-09-05T09:16:08.404Z,13.11
2022-09-05T09:18:50.672Z,13.95
2022-09-05T09:21:38.624Z,13.20
2022-09-05T09:24:17.862Z,13.55
2022-09-05T09:27:57.771Z,13.59
2022-09-05T09:30:22.798Z,13.69
2022-09-05T09:32:57.497Z,14.04
2022-09-05T09:36:00.010Z,13.84
2022-09-05T09:38:43.791Z,13.73
2022-09-05T09:41:38.188Z,13.55
2022-09-05T09:44:49.707Z,13.89
2022-09-05T09:47:56.550Z,13.88
2022-09-05T09:50:59.050Z,13.98
2022-09-05T09:53:35.287Z,14.29
2022-09-05T09:56:30.468Z,14.19
2022-09-05T09:59:21.675Z,14.19
2022-09-05T10:02:41.128Z,14.40
2022-09-05T10:10:39.192Z,14.22
2022-09-05T10:10:49.409Z,14.78
2022-09-05T10:12:24.352Z,14.94
2022-09-05T10:15:30.817Z,15.27
2022-09-05T10:18:12.078Z,15.57
2022-09-05T10:21:16.896Z,15.78
2022-09-05T10:23:53.914Z,16.04
2022-09-05T10:26:40.401Z,15.97
2022-09-05T10:29:38.682Z,15.33
2022-09-05T10:35:08.049Z,15.50
2022-09-05T10:35:30.535Z,15.11
2022-09-05T10:38:29.495Z,16.23
2022-09-05T10:41:21.601Z,16.81
2022-09-05T10:44:05.639Z,17.52
2022-09-05T10:46:53.481Z,17.82
2022-09-05T10:49:30.178Z,17.54
2022-09-05T10:52:21.798Z,18.11
2022-09-05T10:55:14.183Z,18.89
2022-09-05T10:58:09.927Z,19.23
2022-09-05T11:02:20.159Z,19.76
2022-09-05T11:04:15.006Z,20.05
2022-09-05T11:06:48.018Z,20.37
2022-09-05T11:09:56.330Z,20.68
2022-09-05T11:12:45.389Z,21.06
2022-09-05T11:15:39.613Z,20.27
2022-09-05T11:18:55.356Z,19.26
2022-09-05T11:21:40.377Z,18.87
2022-09-05T11:24:36.321Z,18.75
2022-09-05T11:27:27.314Z,18.74
2022-09-05T11:30:28.892Z,18.80
2022-09-05T11:39:52.353Z,18.77
2022-09-05T11:40:05.508Z,18.98
2022-09-05T11:40:45.200Z,19.27
2022-09-05T11:44:11.825Z,20.63
2022-09-05T11:47:29.942Z,20.50
2022-09-05T11:50:40.411Z,20.58
2022-09-05T11:53:47.901Z,20.77
2022-09-05T11:56:29.115Z,21.61
2022-09-05T11:59:33.680Z,21.45
2022-09-05T12:05:49.647Z,22.92
2022-09-05T12:08:43.432Z,24.30
2022-09-05T12:11:57.982Z,25.24
2022-09-05T12:14:49.385Z,24.97
2022-09-05T12:17:35.877Z,24.48
2022-09-05T12:20:29.559Z,24.57
2022-09-05T12:23:31.179Z,24.46
2022-09-05T12:27:41.797Z,24.23
2022-09-05T12:29:34.001Z,24.97
2022-09-05T12:34:23.559Z,24.68
2022-09-05T12:40:52.938Z,25.33
2022-09-05T12:40:59.561Z,24.89
2022-09-05T12:41:35.459Z,22.11
2022-09-05T12:42:30.890Z,24.31
2022-09-05T12:45:27.177Z,24.38
2022-09-05T12:48:21.781Z,24.39
2022-09-05T12:51:11.498Z,24.54
2022-09-05T12:53:54.057Z,24.69
2022-09-05T13:00:26.229Z,24.89
2022-09-05T13:03:05.296Z,24.55
2022-09-05T13:03:12.650Z,25.61
2022-09-05T13:05:46.425Z,25.52
2022-09-05T13:08:22.261Z,26.53
2022-09-05T13:14:46.309Z,26.20
2022-09-05T13:15:02.405Z,26.21
2022-09-05T13:17:07.864Z,25.09
2022-09-05T13:19:52.356Z,25.17
2022-09-05T13:22:25.667Z,25.36
2022-09-05T13:25:09.471Z,25.64
2022-09-05T13:27:47.688Z,26.02
2022-09-05T13:37:04.870Z,27.84
2022-09-05T13:38:01.425Z,26.88
2022-09-05T13:38:29.415Z,28.50
2022-09-05T13:39:54.448Z,26.87
2022-09-05T13:42:35.060Z,27.01
2022-09-05T13:45:07.223Z,28.26
2022-09-05T13:48:07.005Z,29.88
2022-09-05T13:50:48.706Z,27.82
2022-09-05T13:53:38.048Z,28.03
2022-09-05T13:56:28.758Z,28.06
2022-09-05T13:59:08.215Z,28.15
2022-09-05T14:02:14.918Z,28.43
2022-09-05T14:05:21.177Z,27.57
2022-09-05T14:08:19.188Z,27.18
2022-09-05T14:10:56.548Z,27.42
2022-09-05T14:13:34.117Z,27.67
2022-09-05T14:16:15.030Z,29.07
2022-09-05T14:19:08.545Z,29.53
2022-09-05T14:21:43.247Z,29.20
2022-09-05T14:24:28.164Z,30.26
2022-09-05T14:27:01.698Z,32.36
2022-09-05T14:29:40.627Z,29.59
2022-09-05T14:37:38.656Z,31.77
2022-09-05T14:38:00.713Z,32.72
2022-09-05T14:38:14.572Z,33.93
2022-09-05T14:40:50.977Z,34.86
2022-09-05T14:43:56.978Z,34.99
2022-09-05T14:46:52.303Z,34.26
2022-09-05T14:49:30.177Z,35.11
2022-09-05T14:52:01.464Z,36.11
2022-09-05T15:02:45.944Z,37.30
2022-09-05T15:02:53.439Z,37.53
2022-09-05T15:06:34.271Z,34.57
2022-09-05T15:12:18.208Z,35.06
2022-09-05T15:12:33.174Z,33.26
2022-09-05T15:15:09.371Z,33.83
2022-09-05T15:17:41.859Z,33.34
2022-09-05T15:20:13.274Z,32.46
2022-09-05T15:22:43.725Z,33.65
2022-09-05T15:25:25.547Z,34.08
2022-09-05T15:27:56.374Z,33.43
2022-09-05T15:30:35.908Z,33.37
2022-09-05T15:33:29.442Z,31.04
2022-09-05T15:36:02.158Z,31.39
2022-09-05T15:38:55.499Z,32.28
2022-09-05T15:41:30.265Z,34.33
2022-09-05T15:44:11.032Z,34.67
2022-09-05T15:46:47.826Z,33.52
2022-09-05T15:49:39.550Z,31.64
2022-09-05T15:52:19.521Z,32.00
2022-09-05T15:54:54.720Z,32.00
2022-09-05T15:57:35.149Z,32.98
2022-09-05T16:00:12.795Z,30.66
2022-09-05T16:02:49.177Z,30.53
2022-09-05T16:10:35.908Z,30.37
2022-09-05T16:10:40.245Z,32.96
2022-09-05T16:14:39.574Z,31.45
2022-09-05T16:23:16.221Z,33.67
2022-09-05T16:23:26.021Z,35.17
2022-09-05T16:23:42.011Z,35.35
2022-09-05T16:26:25.838Z,34.19
2022-09-05T16:29:02.358Z,33.75
2022-09-05T16:31:45.485Z,35.01
2022-09-05T16:34:56.256Z,35.57
2022-09-05T16:37:44.223Z,35.16
2022-09-05T16:40:46.716Z,37.29
2022-09-05T16:43:25.953Z,38.23
2022-09-05T16:45:59.294Z,39.05
2022-09-05T16:48:39.022Z,39.44
2022-09-05T16:51:36.583Z,36.29
2022-09-05T16:54:22.167Z,37.34
2022-09-05T16:57:17.887Z,37.47
2022-09-05T16:59:49.477Z,38.08
2022-09-05T17:02:40.276Z,35.45
2022-09-05T17:05:32.035Z,34.61
2022-09-05T17:08:24.843Z,34.73
2022-09-05T17:11:12.218Z,33.69
2022-09-05T17:13:59.170Z,34.88
2022-09-05T17:16:50.326Z,36.38
2022-09-05T17:19:31.184Z,36.71
2022-09-05T17:24:24.536Z,33.45
2022-09-05T17:29:26.221Z,33.72
2022-09-05T17:29:26.822Z,33.21
2022-09-05T17:33:44.861Z,34.65
2022-09-05T17:36:39.246Z,35.40
2022-09-05T17:39:44.230Z,36.30
2022-09-05T17:42:40.941Z,32.43
2022-09-05T17:45:45.907Z,31.77
2022-09-05T17:48:17.987Z,33.87
2022-09-05T17:50:55.099Z,32.94
2022-09-05T17:53:32.071Z,31.20
2022-09-05T17:56:04.544Z,31.19
2022-09-05T17:58:50.097Z,30.42
2022-09-05T18:01:29.963Z,31.17
2022-09-05T18:04:08.544Z,30.00
2022-09-05T18:06:59.132Z,29.97
2022-09-05T18:09:47.964Z,30.61
2022-09-05T18:13:13.549Z,30.43
2022-09-05T18:15:33.762Z,30.39
2022-09-05T18:18:29.945Z,30.44
2022-09-05T18:21:21.322Z,29.03
2022-09-05T18:24:16.359Z,28.31
2022-09-05T18:26:53.277Z,28.25
2022-09-05T18:29:58.026Z,27.52
2022-09-05T18:33:55.056Z,27.75
2022-09-05T18:35:58.958Z,27.74
2022-09-05T18:38:51.512Z,27.40
2022-09-05T18:41:25.088Z,27.40
2022-09-05T18:44:13.826Z,27.43
2022-09-05T18:46:58.391Z,27.05
2022-09-05T18:50:25.068Z,26.52
2022-09-05T18:52:23.778Z,26.55
2022-09-05T18:56:08.853Z,26.54
2022-09-05T18:58:06.357Z,26.04
2022-09-05T19:00:44.473Z,25.78
2022-09-05T19:03:24.947Z,25.85
2022-09-05T19:06:37.231Z,25.41
2022-09-05T19:09:16.262Z,25.19
2022-09-05T19:11:53.198Z,24.74
2022-09-05T19:14:39.991Z,25.24
2022-09-05T19:17:24.123Z,25.02
2022-09-05T19:20:32.247Z,24.66
2022-09-05T19:23:12.763Z,24.17
2022-09-05T19:25:50.171Z,24.54
2022-09-05T19:36:20.803Z,24.00
2022-09-05T19:36:59.989Z,23.72
2022-09-05T19:37:03.966Z,23.79
2022-09-05T19:37:41.033Z,23.39
2022-09-05T19:45:15.872Z,23.34
2022-09-05T19:47:34.265Z,23.31
2022-09-05T19:47:38.726Z,23.39
2022-09-05T19:49:11.364Z,23.16
2022-09-05T19:51:42.819Z,22.78
2022-09-05T19:54:33.398Z,22.81
2022-09-05T19:57:23.178Z,22.87
2022-09-05T20:00:05.485Z,22.87
2022-09-05T20:02:48.410Z,22.80
2022-09-05T20:05:23.957Z,22.44
2022-09-05T20:07:57.231Z,22.26
2022-09-05T20:10:37.089Z,22.70
2022-09-05T20:13:25.110Z,22.65
2022-09-05T20:15:56.386Z,22.02
2022-09-05T20:18:45.389Z,21.79
2022-09-05T20:21:36.602Z,21.55
2022-09-05T20:24:07.774Z,21.73
2022-09-05T20:26:39.711Z,21.65
2022-09-05T20:29:10.710Z,21.91
2022-09-05T20:31:41.972Z,22.17
2022-09-05T20:35:30.940Z,21.61
2022-09-05T20:43:08.643Z,21.41
2022-09-05T20:43:28.517Z,21.26
2022-09-05T20:43:31.861Z,21.23
2022-09-05T20:45:48.421Z,20.98
2022-09-05T20:54:13.550Z,20.72
2022-09-05T20:54:18.046Z,20.73
2022-09-05T20:54:42.737Z,20.74
2022-09-05T20:57:21.054Z,20.82
2022-09-05T20:59:52.174Z,20.75
2022-09-05T21:02:32.482Z,20.46
2022-09-05T21:05:21.082Z,20.42
2022-09-05T21:08:01.143Z,20.36
2022-09-05T21:10:57.119Z,20.55
2022-09-05T21:13:33.131Z,20.63
2022-09-05T21:16:05.478Z,20.61
2022-09-05T21:18:39.302Z,20.65
2022-09-05T21:21:28.571Z,20.54
2022-09-05T21:24:18.231Z,21.20
2022-09-05T21:26:51.075Z,20.99
2022-09-05T21:29:32.672Z,20.92
2022-09-05T21:32:11.064Z,20.88
2022-09-05T21:34:56.207Z,20.57
2022-09-05T21:37:27.973Z,21.42
2022-09-05T21:40:00.941Z,21.09
2022-09-05T21:44:57.155Z,21.62
2022-09-05T21:47:40.771Z,21.80
2022-09-05T21:48:16.258Z,21.83
2022-09-05T21:50:50.582Z,22.24
2022-09-05T21:54:28.073Z,22.32
2022-09-05T21:59:29.610Z,21.91
2022-09-05T21:59:36.620Z,21.76
2022-09-05T22:02:09.679Z,21.95
2022-09-05T22:04:43.719Z,22.52
2022-09-05T22:07:31.703Z,22.21
2022-09-05T22:10:05.489Z,22.16
2022-09-05T22:12:39.858Z,22.14
2022-09-05T22:15:27.413Z,21.95
2022-09-05T22:18:17.512Z,22.43
2022-09-05T22:21:31.666Z,20.65
2022-09-05T22:23:46.742Z,20.08
2022-09-05T22:26:19.645Z,19.46
2022-09-05T22:28:52.969Z,19.48
2022-09-05T22:31:24.378Z,19.30
2022-09-05T22:33:54.459Z,19.60
2022-09-05T22:36:24.888Z,19.10
2022-09-05T22:38:55.065Z,19.15
2022-09-05T22:41:30.398Z,19.02
2022-09-05T22:44:01.300Z,18.93
2022-09-05T22:46:35.281Z,19.05
2022-09-05T22:49:05.449Z,19.01
2022-09-05T22:51:35.987Z,18.94
2022-09-05T22:54:06.387Z,19.02
2022-09-05T22:56:39.298Z,19.04
2022-09-05T22:59:10.414Z,18.93
2022-09-05T23:01:40.895Z,19.77
2022-09-05T23:04:11.085Z,20.04
2022-09-05T23:06:41.448Z,19.42
2022-09-05T23:09:14.657Z,19.18
2022-09-05T23:11:45.448Z,19.56
2022-09-05T23:14:17.474Z,20.37
2022-09-05T23:16:50.594Z,20.51
2022-09-05T23:19:20.595Z,20.32
2022-09-05T23:21:50.512Z,20.03
2022-09-05T23:24:20.385Z,20.27
2022-09-05T23:26:50.373Z,20.52
2022-09-05T23:29:20.985Z,19.79
2022-09-05T23:31:50.948Z,19.86
2022-09-05T23:34:20.978Z,19.84
2022-09-05T23:36:51.373Z,19.00
2022-09-05T23:39:21.371Z,19.75
2022-09-05T23:41:55.016Z,20.04
2022-09-05T23:44:24.987Z,20.16
2022-09-05T23:46:54.817Z,20.19
2022-09-05T23:49:24.589Z,19.82
2022-09-05T23:51:54.547Z,20.57
2022-09-05T23:54:24.496Z,20.55
2022-09-05T23:56:54.237Z,20.27
2022-09-05T23:59:24.400Z,20.27
